createdAt,value
2024-05-09T00:01:17.338Z,7.22
2024-05-09T00:03:47.179Z,6.65
2024-05-09T00:06:17.060Z,6.53
2024-05-09T00:08:46.778Z,6.32
2024-05-09T00:11:20.812Z,6.72
2024-05-09T00:13:50.594Z,6.53
2024-05-09T00:16:20.315Z,6.95
2024-05-09T00:18:50.096Z,7.20
2024-05-09T00:21:19.807Z,6.43
2024-05-09T00:23:49.440Z,6.90
2024-05-09T00:26:20.160Z,6.88
2024-05-09T00:28:49.906Z,6.55
2024-05-09T00:31:19.527Z,6.90
2024-05-09T00:33:49.366Z,6.30
2024-05-09T00:36:19.170Z,5.95
2024-05-09T00:38:48.954Z,6.45
2024-05-09T00:41:19.878Z,6.28
2024-05-09T00:43:49.697Z,6.25
2024-05-09T00:46:19.754Z,6.10
2024-05-09T00:48:50.087Z,6.72
2024-05-09T00:51:20.089Z,6.00
2024-05-09T00:53:50.916Z,7.18
2024-05-09T00:56:24.155Z,6.28
2024-05-09T00:58:54.475Z,6.55
2024-05-09T01:01:28.038Z,6.57
2024-05-09T01:03:57.942Z,6.47
2024-05-09T01:06:27.702Z,6.88
2024-05-09T01:08:57.721Z,5.95
2024-05-09T01:11:27.412Z,6.57
2024-05-09T01:13:57.227Z,5.70
2024-05-09T01:16:27.289Z,5.88
2024-05-09T01:18:57.054Z,6.47
2024-05-09T01:21:26.803Z,5.65
2024-05-09T01:23:56.613Z,5.40
2024-05-09T01:26:26.370Z,6.07
2024-05-09T01:28:56.173Z,5.95
2024-05-09T01:31:25.923Z,6.32
2024-05-09T01:33:55.679Z,6.15
2024-05-09T01:36:25.393Z,6.55
2024-05-09T01:38:55.114Z,5.88
2024-05-09T01:41:24.933Z,5.93
2024-05-09T01:43:54.686Z,5.32
2024-05-09T01:46:24.317Z,6.07
2024-05-09T01:48:53.982Z,5.53
2024-05-09T01:51:23.690Z,5.78
2024-05-09T01:53:53.313Z,5.97
2024-05-09T01:56:23.118Z,6.38
2024-05-09T01:58:52.871Z,5.47
2024-05-09T02:01:22.555Z,6.15
2024-05-09T02:03:52.743Z,6.30
2024-05-09T02:06:22.572Z,6.32
2024-05-09T02:08:52.219Z,5.90
2024-05-09T02:11:21.936Z,5.47
2024-05-09T02:13:51.999Z,5.55
2024-05-09T02:16:21.736Z,6.47
2024-05-09T02:18:51.487Z,5.32
2024-05-09T02:21:21.260Z,5.65
2024-05-09T02:23:50.886Z,6.45
2024-05-09T02:26:20.586Z,5.28
2024-05-09T02:28:50.278Z,4.72
2024-05-09T02:31:19.948Z,5.72
2024-05-09T02:33:49.879Z,6.15
2024-05-09T02:36:17.456Z,5.45
2024-05-09T02:38:47.079Z,5.57
2024-05-09T02:41:14.148Z,6.05
2024-05-09T02:43:43.943Z,5.82
2024-05-09T02:46:10.978Z,5.95
2024-05-09T02:48:40.692Z,5.65
2024-05-09T02:51:07.780Z,5.25
2024-05-09T02:53:37.556Z,5.80
2024-05-09T02:56:04.908Z,5.72
2024-05-09T02:58:34.590Z,5.45
2024-05-09T03:01:01.635Z,5.78
2024-05-09T03:03:31.748Z,5.75
2024-05-09T03:05:58.880Z,6.45
2024-05-09T03:08:28.783Z,6.10
2024-05-09T03:10:56.024Z,6.22
2024-05-09T03:13:25.741Z,6.15
2024-05-09T03:15:52.726Z,6.25
2024-05-09T03:18:22.461Z,7.05
2024-05-09T03:20:49.749Z,6.72
2024-05-09T03:23:19.462Z,5.63
2024-05-09T03:25:46.423Z,6.60
2024-05-09T03:28:16.154Z,5.95
2024-05-09T03:30:43.554Z,6.28
2024-05-09T03:33:15.421Z,9.50
2024-05-09T03:35:46.606Z,8.70
2024-05-09T03:38:16.839Z,10.35
2024-05-09T03:40:51.607Z,9.05
2024-05-09T03:43:22.482Z,9.05
2024-05-09T03:45:53.308Z,9.53
2024-05-09T03:48:20.459Z,9.45
2024-05-09T03:50:50.902Z,8.93
2024-05-09T03:53:18.047Z,7.88
2024-05-09T03:55:47.765Z,7.60
2024-05-09T03:58:14.855Z,7.43
2024-05-09T04:00:44.884Z,6.32
2024-05-09T04:03:13.192Z,6.47
2024-05-09T04:05:44.674Z,6.60
2024-05-09T04:08:11.976Z,5.78
2024-05-09T04:10:41.841Z,6.65
2024-05-09T04:13:10.162Z,7.07
2024-05-09T04:15:39.808Z,6.05
2024-05-09T04:18:07.277Z,7.30
2024-05-09T04:20:39.841Z,7.05
2024-05-09T04:23:11.688Z,6.68
2024-05-09T04:25:45.436Z,7.13
2024-05-09T04:28:13.176Z,6.93
2024-05-09T04:30:43.308Z,7.00
2024-05-09T04:33:12.737Z,6.47
2024-05-09T04:35:45.120Z,6.83
2024-05-09T04:38:16.070Z,6.57
2024-05-09T04:40:46.223Z,7.38
2024-05-09T04:43:19.708Z,7.18
2024-05-09T04:45:49.649Z,6.45
2024-05-09T04:48:17.186Z,6.72
2024-05-09T04:50:47.091Z,6.70
2024-05-09T04:53:17.517Z,6.60
2024-05-09T04:55:47.707Z,7.10
2024-05-09T04:58:14.722Z,7.35
2024-05-09T05:00:44.404Z,6.50
2024-05-09T05:03:14.597Z,6.75
2024-05-09T05:08:15.881Z,6.55
2024-05-09T05:10:47.845Z,6.57
2024-05-09T05:13:23.972Z,7.22
2024-05-09T05:15:57.379Z,6.97
2024-05-09T05:18:28.664Z,7.43
2024-05-09T05:20:59.651Z,7.57
2024-05-09T05:23:27.018Z,6.78
2024-05-09T05:25:57.030Z,8.27
2024-05-09T05:28:24.290Z,7.63
2024-05-09T05:30:53.980Z,6.80
2024-05-09T05:33:22.568Z,7.45
2024-05-09T05:35:52.859Z,7.13
2024-05-09T05:38:23.735Z,7.93
2024-05-09T05:40:56.034Z,7.85
2024-05-09T05:43:23.311Z,8.50
2024-05-09T05:45:53.052Z,8.63
2024-05-09T05:48:20.238Z,7.53
2024-05-09T05:50:49.975Z,7.85
2024-05-09T05:53:16.996Z,7.95
2024-05-09T05:55:46.852Z,8.07
2024-05-09T05:58:14.999Z,7.93
2024-05-09T06:00:44.946Z,8.23
2024-05-09T06:03:12.923Z,7.97
2024-05-09T06:05:44.078Z,8.52
2024-05-09T06:08:11.800Z,7.45
2024-05-09T06:10:42.099Z,8.63
2024-05-09T06:13:10.845Z,7.70
2024-05-09T06:15:41.035Z,7.05
2024-05-09T06:18:10.171Z,7.28
2024-05-09T06:20:42.830Z,7.25
2024-05-09T06:23:11.219Z,7.53
2024-05-09T06:25:42.297Z,7.32
2024-05-09T06:28:09.638Z,9.20
2024-05-09T06:30:42.501Z,9.73
2024-05-09T06:33:13.186Z,9.07
2024-05-09T06:35:45.197Z,9.57
2024-05-09T06:38:12.602Z,8.32
2024-05-09T06:40:44.177Z,7.63
2024-05-09T06:43:13.625Z,8.27
2024-05-09T06:45:43.630Z,7.20
2024-05-09T06:48:10.866Z,7.90
2024-05-09T06:50:41.310Z,9.38
2024-05-09T06:53:09.408Z,8.65
2024-05-09T06:55:39.890Z,9.10
2024-05-09T06:58:07.752Z,9.23
2024-05-09T07:00:40.563Z,9.30
2024-05-09T07:03:15.472Z,8.73
2024-05-09T07:05:49.244Z,8.50
2024-05-09T07:08:17.776Z,8.52
2024-05-09T07:10:47.914Z,9.10
2024-05-09T07:13:15.637Z,10.25
2024-05-09T07:15:46.183Z,9.48
2024-05-09T07:18:17.414Z,9.38
2024-05-09T07:20:49.576Z,9.68
2024-05-09T07:23:17.644Z,8.45
2024-05-09T07:25:47.577Z,9.95
2024-05-09T07:28:19.419Z,10.77
2024-05-09T07:30:49.261Z,10.40
2024-05-09T07:33:22.598Z,10.02
2024-05-09T07:35:53.614Z,8.77
2024-05-09T07:38:20.910Z,8.38
2024-05-09T07:40:50.816Z,8.73
2024-05-09T07:43:17.902Z,9.45
2024-05-09T07:45:53.391Z,9.27
2024-05-09T07:52:39.337Z,9.18
2024-05-09T07:53:47.840Z,8.10
2024-05-09T07:56:23.059Z,8.60
2024-05-09T07:58:52.459Z,9.23
2024-05-09T08:01:22.762Z,9.27
2024-05-09T08:03:50.143Z,8.80
2024-05-09T08:06:20.230Z,9.38
2024-05-09T08:08:47.922Z,10.38
2024-05-09T08:11:17.681Z,9.85
2024-05-09T08:13:44.931Z,9.73
2024-05-09T08:16:17.455Z,9.13
2024-05-09T08:18:44.674Z,8.80
2024-05-09T08:21:14.389Z,9.80
2024-05-09T08:23:41.366Z,15.82
2024-05-09T08:26:10.998Z,9.50
2024-05-09T08:28:37.977Z,7.82
2024-05-09T08:31:08.005Z,8.65
2024-05-09T08:33:35.389Z,9.75
2024-05-09T08:36:05.370Z,9.65
2024-05-09T08:38:32.395Z,8.93
2024-05-09T08:41:04.930Z,10.13
2024-05-09T08:43:31.982Z,9.73
2024-05-09T08:46:02.952Z,9.88
2024-05-09T08:48:32.205Z,8.93
2024-05-09T08:51:02.154Z,8.63
2024-05-09T08:53:29.307Z,9.75
2024-05-09T08:56:03.910Z,9.88
2024-05-09T08:58:31.757Z,8.48
2024-05-09T09:01:03.098Z,8.88
2024-05-09T09:06:09.266Z,9.77
2024-05-09T09:08:39.365Z,8.68
2024-05-09T09:11:09.605Z,9.00
2024-05-09T09:13:36.842Z,8.98
2024-05-09T09:16:06.923Z,8.95
2024-05-09T09:18:34.573Z,8.88
2024-05-09T09:21:04.319Z,9.70
2024-05-09T09:23:31.370Z,8.85
2024-05-09T09:26:02.584Z,9.35
2024-05-09T09:28:30.081Z,9.07
2024-05-09T09:31:06.913Z,9.25
2024-05-09T09:33:36.300Z,8.85
2024-05-09T09:36:08.992Z,8.30
2024-05-09T09:38:37.872Z,9.98
2024-05-09T09:41:11.019Z,8.77
2024-05-09T09:43:39.768Z,8.38
2024-05-09T09:46:12.758Z,10.30
2024-05-09T09:48:41.793Z,11.05
2024-05-09T09:51:12.299Z,10.48
2024-05-09T09:53:40.076Z,10.25
2024-05-09T09:56:10.907Z,11.15
2024-05-09T09:58:40.363Z,10.30
2024-05-09T10:01:10.112Z,11.32
2024-05-09T10:03:37.531Z,10.05
2024-05-09T10:06:08.574Z,8.98
2024-05-09T10:08:36.946Z,10.73
2024-05-09T10:11:07.164Z,12.50
2024-05-09T10:13:35.076Z,10.07
2024-05-09T10:16:12.436Z,13.27
2024-05-09T10:18:41.251Z,12.57
2024-05-09T10:21:21.093Z,12.48
2024-05-09T10:24:02.335Z,13.02
2024-05-09T10:26:39.895Z,11.48
2024-05-09T10:29:14.511Z,12.90
2024-05-09T10:31:45.925Z,11.20
2024-05-09T10:34:24.096Z,9.95
2024-05-09T10:36:57.528Z,16.90
2024-05-09T10:39:25.848Z,18.75
2024-05-09T10:41:55.539Z,17.98
2024-05-09T10:44:22.538Z,11.35
2024-05-09T10:46:54.856Z,11.18
2024-05-09T10:49:22.198Z,10.32
2024-05-09T10:51:52.158Z,11.40
2024-05-09T10:54:19.200Z,17.55
2024-05-09T10:56:48.969Z,12.52
2024-05-09T10:59:15.984Z,12.52
2024-05-09T11:01:46.076Z,13.07
2024-05-09T11:04:14.437Z,12.63
2024-05-09T11:06:44.521Z,12.27
2024-05-09T11:09:11.998Z,13.13
2024-05-09T11:11:41.814Z,13.30
2024-05-09T11:14:15.199Z,11.70
2024-05-09T11:16:44.864Z,12.70
2024-05-09T11:19:13.596Z,10.38
2024-05-09T11:21:43.673Z,11.07
2024-05-09T11:24:11.715Z,11.02
2024-05-09T11:26:41.737Z,10.88
2024-05-09T11:29:08.836Z,11.75
2024-05-09T11:31:51.141Z,11.10
2024-05-09T11:34:18.225Z,11.95
2024-05-09T11:36:48.278Z,13.90
2024-05-09T11:39:15.426Z,12.82
2024-05-09T11:41:45.053Z,13.25
2024-05-09T11:44:13.272Z,13.48
2024-05-09T11:46:43.012Z,14.40
2024-05-09T11:49:10.430Z,15.27
2024-05-09T11:51:40.143Z,14.30
2024-05-09T11:54:07.224Z,14.95
2024-05-09T11:56:37.257Z,14.52
2024-05-09T11:59:04.262Z,14.65
2024-05-09T12:01:34.013Z,15.63
2024-05-09T12:04:01.402Z,17.25
2024-05-09T12:06:32.272Z,18.40
2024-05-09T12:08:59.277Z,17.15
2024-05-09T12:11:28.933Z,17.27
2024-05-09T12:13:55.910Z,19.00
2024-05-09T12:16:25.691Z,19.23
2024-05-09T12:18:52.973Z,17.83
2024-05-09T12:21:22.665Z,19.63
2024-05-09T12:23:49.732Z,16.88
2024-05-09T12:26:19.783Z,17.88
2024-05-09T12:28:46.825Z,16.52
2024-05-09T12:31:16.561Z,15.75
2024-05-09T12:33:43.678Z,15.68
2024-05-09T12:36:14.054Z,15.05
2024-05-09T12:38:41.520Z,13.18
2024-05-09T12:41:11.495Z,12.10
2024-05-09T12:43:38.612Z,13.10
2024-05-09T12:46:08.387Z,12.80
2024-05-09T12:48:35.519Z,11.88
2024-05-09T12:51:06.112Z,10.20
2024-05-09T12:53:33.209Z,11.80
2024-05-09T12:56:04.400Z,11.25
2024-05-09T12:58:32.458Z,11.48
2024-05-09T13:01:02.230Z,11.52
2024-05-09T13:03:29.533Z,10.27
2024-05-09T13:05:59.444Z,11.13
2024-05-09T13:08:26.961Z,11.55
2024-05-09T13:10:56.739Z,11.50
2024-05-09T13:13:23.800Z,11.05
2024-05-09T13:15:53.561Z,11.00
2024-05-09T13:18:20.952Z,12.10
2024-05-09T13:20:50.617Z,11.68
2024-05-09T13:23:17.629Z,12.65
2024-05-09T13:25:47.324Z,14.00
2024-05-09T13:28:14.365Z,13.15
2024-05-09T13:30:44.231Z,12.82
2024-05-09T13:33:12.475Z,13.38
2024-05-09T13:35:50.329Z,11.98
2024-05-09T13:38:20.165Z,12.00
2024-05-09T13:40:50.903Z,9.57
2024-05-09T13:43:18.709Z,10.77
2024-05-09T13:45:48.936Z,9.23
2024-05-09T13:48:16.323Z,10.32
2024-05-09T13:50:46.127Z,9.52
2024-05-09T13:53:13.116Z,9.95
2024-05-09T13:55:42.856Z,10.38
2024-05-09T13:58:10.040Z,9.75
2024-05-09T14:00:46.823Z,8.68
2024-05-09T14:03:20.372Z,8.98
2024-05-09T14:05:52.403Z,8.10
2024-05-09T14:08:21.735Z,8.45
2024-05-09T14:10:52.508Z,8.75
2024-05-09T14:13:20.267Z,8.05
2024-05-09T14:15:50.340Z,8.38
2024-05-09T14:18:18.282Z,8.82
2024-05-09T14:20:48.001Z,8.20
2024-05-09T14:23:17.742Z,7.50
2024-05-09T14:25:51.189Z,11.57
2024-05-09T14:28:20.590Z,6.30
2024-05-09T14:30:50.493Z,6.85
2024-05-09T14:33:23.686Z,6.22
2024-05-09T14:35:53.467Z,7.07
2024-05-09T14:38:20.568Z,6.00
2024-05-09T14:40:50.756Z,5.55
2024-05-09T14:43:18.676Z,6.05
2024-05-09T14:45:49.155Z,6.05
2024-05-09T14:48:16.784Z,5.87
2024-05-09T14:50:46.484Z,6.50
2024-05-09T14:53:14.013Z,6.00
2024-05-09T14:55:44.679Z,6.75
2024-05-09T14:58:13.070Z,6.60
2024-05-09T15:00:48.508Z,7.68
2024-05-09T15:03:22.502Z,5.57
2024-05-09T15:05:52.967Z,6.35
2024-05-09T15:08:20.542Z,6.85
2024-05-09T15:10:51.253Z,5.93
2024-05-09T15:13:19.579Z,4.95
2024-05-09T15:15:49.628Z,5.30
2024-05-09T15:18:17.273Z,4.80
2024-05-09T15:20:48.586Z,5.50
2024-05-09T15:25:45.480Z,6.18
2024-05-09T15:28:12.639Z,6.72
2024-05-09T15:30:46.006Z,6.43
2024-05-09T15:33:14.200Z,5.40
2024-05-09T15:35:45.882Z,5.75
2024-05-09T15:38:14.187Z,5.15
2024-05-09T15:40:43.814Z,6.00
2024-05-09T15:43:11.783Z,5.90
2024-05-09T15:45:42.389Z,5.80
2024-05-09T15:48:10.888Z,5.93
2024-05-09T15:50:42.528Z,6.97
2024-05-09T15:53:12.064Z,6.35
2024-05-09T15:55:42.732Z,5.47
2024-05-09T15:58:10.233Z,4.80
2024-05-09T16:00:42.759Z,4.53
2024-05-09T16:03:12.506Z,5.47
2024-05-09T16:05:43.759Z,4.72
2024-05-09T16:08:11.749Z,5.45
2024-05-09T16:10:44.559Z,6.13
2024-05-09T16:13:13.004Z,5.13
2024-05-09T16:15:42.852Z,5.25
2024-05-09T16:18:09.947Z,5.97
2024-05-09T16:20:41.782Z,6.18
2024-05-09T16:23:10.759Z,4.95
2024-05-09T16:25:41.931Z,6.07
2024-05-09T16:28:10.743Z,5.75
2024-05-09T16:30:41.856Z,6.85
2024-05-09T16:33:09.624Z,8.75
2024-05-09T16:35:41.523Z,6.75
2024-05-09T16:38:08.709Z,6.97
2024-05-09T16:40:41.192Z,5.88
2024-05-09T16:43:13.198Z,5.55
2024-05-09T16:45:44.981Z,5.60
2024-05-09T16:48:14.152Z,5.85
2024-05-09T16:50:44.236Z,4.63
2024-05-09T16:53:11.309Z,6.65
2024-05-09T16:55:40.965Z,5.93
2024-05-09T16:58:09.080Z,5.45
2024-05-09T17:00:42.519Z,7.60
2024-05-09T17:03:14.823Z,7.03
2024-05-09T17:05:47.151Z,7.68
2024-05-09T17:08:15.733Z,7.10
2024-05-09T17:10:45.735Z,7.28
2024-05-09T17:13:12.884Z,6.45
2024-05-09T17:15:42.738Z,6.90
2024-05-09T17:18:10.068Z,5.35
2024-05-09T17:20:39.731Z,6.30
2024-05-09T17:23:13.391Z,5.53
2024-05-09T17:25:44.365Z,5.85
2024-05-09T17:28:12.185Z,6.18
2024-05-09T17:30:42.898Z,5.85
2024-05-09T17:33:11.301Z,5.15
2024-05-09T17:35:42.289Z,5.35
2024-05-09T17:38:09.686Z,5.53
2024-05-09T17:40:40.087Z,6.38
2024-05-09T17:43:09.635Z,5.67
2024-05-09T17:45:41.985Z,5.38
2024-05-09T17:48:11.107Z,5.88
2024-05-09T17:50:42.350Z,6.57
2024-05-09T17:53:10.825Z,5.40
2024-05-09T17:55:40.968Z,5.35
2024-05-09T17:58:08.683Z,6.03
2024-05-09T18:00:41.327Z,5.80
2024-05-09T18:03:11.372Z,4.60
2024-05-09T18:05:42.851Z,5.10
2024-05-09T18:08:10.916Z,5.35
2024-05-09T18:10:42.041Z,5.75
2024-05-09T18:13:09.736Z,6.07
2024-05-09T18:15:40.040Z,6.22
2024-05-09T18:18:08.056Z,5.75
2024-05-09T18:20:43.868Z,5.30
2024-05-09T18:23:15.728Z,6.75
2024-05-09T18:25:47.186Z,6.07
2024-05-09T18:28:15.176Z,5.90
2024-05-09T18:30:45.067Z,6.00
2024-05-09T18:33:12.572Z,7.03
2024-05-09T18:35:45.539Z,6.35
2024-05-09T18:38:13.260Z,6.53
2024-05-09T18:40:44.727Z,7.07
2024-05-09T18:43:14.181Z,7.45
2024-05-09T18:45:43.891Z,6.57
2024-05-09T18:48:11.903Z,6.55
2024-05-09T18:50:41.972Z,6.15
2024-05-09T18:53:11.768Z,7.40
2024-05-09T18:55:42.691Z,6.50
2024-05-09T18:58:09.968Z,6.20
2024-05-09T19:00:42.600Z,6.82
2024-05-09T19:03:13.917Z,7.43
2024-05-09T19:05:46.212Z,7.38
2024-05-09T19:08:15.076Z,7.28
2024-05-09T19:10:45.807Z,7.30
2024-05-09T19:13:14.282Z,7.90
2024-05-09T19:15:45.160Z,7.10
2024-05-09T19:18:13.806Z,7.33
2024-05-09T19:20:44.321Z,7.70
2024-05-09T19:23:11.936Z,7.70
2024-05-09T19:25:41.835Z,8.00
2024-05-09T19:28:08.999Z,7.20
2024-05-09T19:30:41.749Z,8.27
2024-05-09T19:33:12.578Z,8.07
2024-05-09T19:35:43.653Z,9.18
2024-05-09T19:38:11.488Z,10.10
2024-05-09T19:40:41.395Z,8.68
2024-05-09T19:43:08.689Z,8.32
2024-05-09T19:45:38.607Z,8.00
2024-05-09T19:48:06.819Z,8.48
2024-05-09T19:50:42.404Z,8.25
2024-05-09T19:53:12.694Z,9.23
2024-05-09T19:55:44.263Z,7.97
2024-05-09T19:58:12.642Z,9.13
2024-05-09T20:00:45.010Z,8.85
2024-05-09T20:03:15.531Z,9.48
2024-05-09T20:05:48.610Z,9.82
2024-05-09T20:08:15.872Z,9.27
2024-05-09T20:10:45.945Z,9.10
2024-05-09T20:13:14.375Z,8.68
2024-05-09T20:15:44.237Z,9.15
2024-05-09T20:18:11.793Z,8.18
2024-05-09T20:20:43.796Z,9.30
2024-05-09T20:23:12.858Z,10.02
2024-05-09T20:25:43.178Z,9.10
2024-05-09T20:28:10.769Z,9.27
2024-05-09T20:30:40.857Z,8.57
2024-05-09T20:33:09.209Z,11.02
2024-05-09T20:35:39.699Z,10.70
2024-05-09T20:38:06.710Z,9.73
2024-05-09T20:40:38.937Z,11.02
2024-05-09T20:43:08.343Z,10.18
2024-05-09T20:45:38.636Z,10.05
2024-05-09T20:48:07.158Z,10.80
2024-05-09T20:50:40.679Z,10.40
2024-05-09T20:53:11.269Z,9.93
2024-05-09T20:55:41.749Z,10.75
2024-05-09T20:58:09.836Z,11.77
2024-05-09T21:00:43.114Z,11.10
2024-05-09T21:03:13.607Z,11.90
2024-05-09T21:05:44.301Z,9.90
2024-05-09T21:08:11.522Z,10.82
2024-05-09T21:10:41.227Z,10.88
2024-05-09T21:13:08.390Z,11.40
2024-05-09T21:15:38.415Z,11.32
2024-05-09T21:18:05.823Z,10.98
2024-05-09T21:20:37.721Z,11.00
2024-05-09T21:23:05.026Z,10.95
2024-05-09T21:25:34.797Z,11.38
2024-05-09T21:28:01.920Z,9.88
2024-05-09T21:30:40.373Z,12.18
2024-05-09T21:33:11.847Z,10.00
2024-05-09T21:35:44.273Z,11.33
2024-05-09T21:40:43.831Z,11.45
2024-05-09T21:43:11.158Z,11.50
2024-05-09T21:45:40.924Z,15.82
2024-05-09T21:48:08.828Z,13.32
2024-05-09T21:50:41.315Z,12.23
2024-05-09T21:53:11.156Z,13.05
2024-05-09T21:55:40.937Z,12.18
2024-05-09T21:58:08.385Z,12.57
2024-05-09T22:00:39.515Z,12.20
2024-05-09T22:03:11.136Z,12.15
2024-05-09T22:05:44.773Z,11.85
2024-05-09T22:08:12.453Z,11.88
2024-05-09T22:10:42.615Z,11.60
2024-05-09T22:13:09.924Z,12.80
2024-05-09T22:15:41.898Z,13.15
2024-05-09T22:18:10.329Z,13.65
2024-05-09T22:20:45.200Z,13.93
2024-05-09T22:23:13.922Z,14.60
2024-05-09T22:25:43.812Z,15.05
2024-05-09T22:28:12.818Z,15.63
2024-05-09T22:30:44.155Z,15.18
2024-05-09T22:33:14.292Z,16.02
2024-05-09T22:35:44.420Z,16.20
2024-05-09T22:38:11.541Z,18.45
2024-05-09T22:40:47.494Z,18.40
2024-05-09T22:43:22.182Z,19.42
2024-05-09T22:45:54.886Z,19.10
2024-05-09T22:48:23.824Z,17.58
2024-05-09T22:50:54.398Z,19.17
2024-05-09T22:53:25.274Z,18.45
2024-05-09T22:55:55.316Z,17.17
2024-05-09T22:58:23.591Z,17.00
2024-05-09T23:00:53.796Z,14.57
2024-05-09T23:03:22.765Z,14.07
2024-05-09T23:05:52.893Z,14.02
2024-05-09T23:08:19.899Z,15.25
2024-05-09T23:10:49.725Z,13.82
2024-05-09T23:13:16.946Z,15.63
2024-05-09T23:15:46.731Z,16.00
2024-05-09T23:18:13.851Z,14.52
2024-05-09T23:20:43.612Z,16.25
2024-05-09T23:23:11.756Z,16.27
2024-05-09T23:25:43.818Z,14.75
2024-05-09T23:28:12.052Z,14.15
2024-05-09T23:30:42.511Z,13.93
2024-05-09T23:33:11.491Z,14.07
2024-05-09T23:35:44.487Z,12.80
2024-05-09T23:38:11.941Z,13.85
2024-05-09T23:40:42.715Z,15.18
2024-05-09T23:43:11.732Z,14.75
2024-05-09T23:45:42.515Z,13.98
2024-05-09T23:48:10.690Z,14.55
2024-05-09T23:50:41.337Z,15.70
2024-05-09T23:53:09.907Z,13.15
2024-05-09T23:55:41.106Z,15.43
2024-05-09T23:58:08.693Z,13.88
